Time;durP1;ratioP1;P1;durP2;ratioP2;P2;SDS_P1;SDS_P2;PMS_P1;PMS_P2;Temp;Humidity;BMP_temperature;BMP_pressure;BME280_temperature;BME280_humidity;BME280_pressure;Samples;Min_cycle;Max_cycle;Signal;HPM_P1;HPM_P2
2023/01/16 00:01:28;;;;;;;3.30;1.00;;;29.50;92.70;;;;;;5113762;28;20401;-88
2023/01/16 00:03:55;;;;;;;4.40;1.10;;;29.60;91.80;;;;;;5114609;27;20735;-88
2023/01/16 00:06:22;;;;;;;5.05;1.10;;;29.70;92.20;;;;;;5114714;27;20374;-87
2023/01/16 00:08:49;;;;;;;3.53;0.95;;;30.10;92.00;;;;;;5114566;28;20466;-87
2023/01/16 00:11:16;;;;;;;3.17;1.00;;;30.20;90.90;;;;;;5114496;28;20375;-91
2023/01/16 00:13:42;;;;;;;4.03;1.10;;;30.60;90.40;;;;;;5114796;28;20367;-87
2023/01/16 00:16:09;;;;;;;2.78;0.90;;;30.90;90.00;;;;;;5114539;27;20379;-87
2023/01/16 00:18:36;;;;;;;2.00;0.80;;;31.30;85.90;;;;;;5114312;28;20378;-85
2023/01/16 00:21:04;;;;;;;1.98;0.80;;;31.60;83.00;;;;;;5114228;28;20399;-85
2023/01/16 00:23:31;;;;;;;3.03;0.93;;;31.60;81.90;;;;;;5114518;28;20370;-86
2023/01/16 00:25:58;;;;;;;2.10;0.85;;;31.60;80.90;;;;;;5114231;28;20784;-87
2023/01/16 00:28:24;;;;;;;3.05;1.00;;;31.30;80.40;;;;;;5114301;28;20799;-86
2023/01/16 00:30:51;;;;;;;1.80;0.70;;;30.90;82.20;;;;;;5114287;28;20738;-88
2023/01/16 00:33:18;;;;;;;3.53;0.90;;;30.60;82.50;;;;;;5114159;28;20448;-86
2023/01/16 00:35:47;;;;;;;3.10;1.10;;;30.20;83.90;;;;;;5114267;28;20381;-87
2023/01/16 00:38:14;;;;;;;2.28;0.70;;;30.40;83.30;;;;;;5114046;27;20367;-86
2023/01/16 00:40:41;;;;;;;2.47;0.80;;;31.00;81.90;;;;;;5113949;27;20399;-86
2023/01/16 00:43:08;;;;;;;3.00;0.90;;;31.10;78.30;;;;;;5113833;28;20758;-87
2023/01/16 00:45:35;;;;;;;1.87;0.70;;;31.00;78.10;;;;;;5114226;28;20383;-87
2023/01/16 00:48:03;;;;;;;1.77;0.70;;;30.50;79.60;;;;;;5113960;28;20420;-87
2023/01/16 00:50:30;;;;;;;2.03;0.70;;;30.30;78.60;;;;;;5113693;28;20370;-86
2023/01/16 00:52:57;;;;;;;2.17;0.70;;;30.20;77.90;;;;;;5113689;28;20375;-87
2023/01/16 00:55:24;;;;;;;2.95;0.80;;;30.10;78.80;;;;;;5113785;28;20371;-87
2023/01/16 00:57:51;;;;;;;2.88;0.80;;;30.70;79.10;;;;;;5112415;28;20791;-88
2023/01/16 01:00:21;;;;;;;2.00;0.70;;;31.20;76.30;;;;;;5113575;28;20485;-88
2023/01/16 01:02:49;;;;;;;1.83;0.70;;;31.80;76.00;;;;;;5113646;28;20367;-89
2023/01/16 01:05:16;;;;;;;2.67;0.80;;;32.40;76.20;;;;;;5112148;28;20383;-88
2023/01/16 01:07:43;;;;;;;2.33;0.90;;;32.80;75.00;;;;;;5113712;27;20367;-89
2023/01/16 01:10:10;;;;;;;2.58;0.80;;;32.80;75.30;;;;;;5113518;28;20672;-87
2023/01/16 01:12:37;;;;;;;1.98;0.80;;;33.00;73.90;;;;;;5113424;28;20374;-87
2023/01/16 01:15:05;;;;;;;2.10;0.80;;;32.90;71.30;;;;;;5113270;28;20367;-87
2023/01/16 01:17:32;;;;;;;1.98;0.77;;;32.30;72.50;;;;;;5113165;28;20858;-87
2023/01/16 01:19:59;;;;;;;2.38;0.90;;;31.80;73.10;;;;;;5113006;27;20382;-87
2023/01/16 01:22:26;;;;;;;4.30;0.80;;;31.60;74.70;;;;;;5113034;28;20401;-89
2023/01/16 01:24:53;;;;;;;2.70;1.02;;;31.30;75.50;;;;;;5113073;28;20374;-88
2023/01/16 01:27:20;;;;;;;4.10;0.90;;;31.10;75.50;;;;;;5112952;28;20931;-86
2023/01/16 01:29:47;;;;;;;4.03;0.88;;;30.80;75.90;;;;;;5113083;28;20428;-87
2023/01/16 01:32:14;;;;;;;3.17;0.90;;;30.60;76.40;;;;;;5111564;28;20386;-87
2023/01/16 01:34:42;;;;;;;2.90;0.70;;;30.30;77.20;;;;;;5113035;28;20466;-82
2023/01/16 01:37:09;;;;;;;2.00;0.75;;;30.30;78.40;;;;;;5113091;28;20923;-86
2023/01/16 01:39:35;;;;;;;3.28;0.80;;;30.70;76.90;;;;;;5111617;28;20887;-88
2023/01/16 01:45:05;;;;;;;2.80;0.80;;;31.70;77.20;;;;;;5112706;28;20405;-83
2023/01/16 01:47:39;;;;;;;3.22;0.60;;;31.90;75.30;;;;;;5113028;28;20913;-84
2023/01/16 01:50:18;;;;;;;1.58;0.75;;;31.40;75.90;;;;;;5111455;28;20886;-83
2023/01/16 01:52:46;;;;;;;2.35;0.80;;;31.00;76.70;;;;;;5112992;28;20440;-82
2023/01/16 01:55:15;;;;;;;2.70;0.83;;;30.80;77.10;;;;;;5112642;28;20386;-83
2023/01/16 01:57:47;;;;;;;2.75;0.90;;;30.50;77.40;;;;;;5112837;28;20447;-83
2023/01/16 02:00:18;;;;;;;3.42;0.90;;;30.20;78.50;;;;;;5112489;28;20440;-84
2023/01/16 02:03:12;;;;;;;3.13;1.02;;;29.20;78.90;;;;;;5112816;28;20359;-83
2023/01/16 02:05:48;;;;;;;3.72;0.90;;;29.90;80.70;;;;;;5112342;28;20347;-83
2023/01/16 02:08:18;;;;;;;3.22;0.90;;;29.80;81.20;;;;;;5112323;28;20451;-84
2023/01/16 02:11:26;;;;;;;2.78;0.82;;;29.80;81.60;;;;;;5112600;28;20362;-84
2023/01/16 02:14:04;;;;;;;3.55;1.10;;;29.80;82.60;;;;;;5112640;28;20359;-83
2023/01/16 02:19:42;;;;;;;3.25;0.93;;;31.50;80.90;;;;;;5112553;28;20362;-84
2023/01/16 02:22:27;;;;;;;3.63;0.88;;;32.60;78.90;;;;;;5112292;28;20400;-84
2023/01/16 02:25:29;;;;;;;1.92;0.77;;;33.90;76.70;;;;;;5114735;28;20351;-84
2023/01/16 02:28:27;;;;;;;2.70;0.80;;;34.90;73.50;;;;;;5115054;28;20912;-84
2023/01/16 02:31:26;;;;;;;2.63;0.80;;;35.40;73.20;;;;;;5116725;28;20370;-84
2023/01/16 02:34:14;;;;;;;4.40;1.20;;;35.30;70.60;;;;;;5116291;28;20397;-83
2023/01/16 02:37:25;;;;;;;2.10;0.80;;;33.70;72.60;;;;;;5116639;28;20862;-83
2023/01/16 02:40:10;;;;;;;5.80;1.00;;;32.60;75.00;;;;;;5073845;28;20888;-83
2023/01/16 02:43:07;;;;;;;1.70;0.70;;;31.90;75.90;;;;;;5073578;28;20385;-83
2023/01/16 02:45:37;;;;;;;4.45;0.93;;;31.90;75.20;;;;;;5073686;28;20820;-83
2023/01/16 02:48:42;;;;;;;2.63;0.90;;;31.90;76.80;;;;;;5073855;28;20392;-82
2023/01/16 02:51:34;;;;;;;3.08;0.90;;;31.50;77.90;;;;;;4994363;28;20381;-83
2023/01/16 02:54:16;;;;;;;2.17;0.80;;;30.70;79.10;;;;;;4993887;28;20381;-83
2023/01/16 02:57:06;;;;;;;2.72;0.82;;;30.60;79.80;;;;;;4994277;28;20384;-83
2023/01/16 02:59:34;;;;;;;2.83;0.82;;;30.70;80.00;;;;;;4993891;28;20369;-85
2023/01/16 03:02:03;;;;;;;4.15;0.98;;;31.70;80.40;;;;;;4993973;28;20397;-84
2023/01/16 03:04:47;;;;;;;3.45;0.80;;;33.50;76.30;;;;;;4994180;28;20373;-84
2023/01/16 03:07:35;;;;;;;2.70;1.08;;;34.80;73.00;;;;;;4993668;28;20891;-83
2023/01/16 03:10:14;;;;;;;1.67;0.80;;;34.20;71.50;;;;;;4994074;28;20875;-83
2023/01/16 03:13:01;;;;;;;1.85;0.90;;;34.40;72.10;;;;;;4994178;28;20369;-84
2023/01/16 03:15:48;;;;;;;3.42;0.98;;;35.20;71.60;;;;;;5001320;28;20385;-83
2023/01/16 03:18:42;;;;;;;2.88;0.90;;;35.80;69.90;;;;;;5052828;28;20383;-83
2023/01/16 03:21:28;;;;;;;1.67;0.70;;;35.50;69.00;;;;;;5052963;28;20458;-88
2023/01/16 03:24:03;;;;;;;2.55;0.80;;;35.30;68.90;;;;;;5053367;28;20371;-89
2023/01/16 03:26:55;;;;;;;2.10;0.70;;;34.70;70.70;;;;;;5080301;28;20370;-85
2023/01/16 03:29:42;;;;;;;2.13;0.80;;;35.30;68.80;;;;;;5116827;28;20358;-89
2023/01/16 03:32:31;;;;;;;2.10;0.80;;;35.00;67.40;;;;;;5117207;28;20409;-90
2023/01/16 03:35:15;;;;;;;1.83;0.70;;;35.30;68.70;;;;;;5116429;28;20371;-88
2023/01/16 03:37:56;;;;;;;1.17;0.65;;;36.20;65.80;;;;;;5114903;28;20379;-90
2023/01/16 03:40:30;;;;;;;2.00;0.70;;;35.50;65.00;;;;;;5115558;28;20400;-95
2023/01/16 03:43:15;;;;;;;3.10;1.00;;;34.50;66.40;;;;;;5115394;28;20465;-91
2023/01/16 03:46:01;;;;;;;1.55;0.70;;;33.50;68.10;;;;;;5116375;28;20378;-86
2023/01/16 03:48:48;;;;;;;2.20;0.80;;;32.80;69.60;;;;;;5114963;28;20390;-87
2023/01/16 03:51:26;;;;;;;2.03;0.77;;;33.40;69.40;;;;;;5115003;28;20370;-87
2023/01/16 03:54:11;;;;;;;1.47;0.80;;;35.20;66.50;;;;;;5113965;28;20431;-89
2023/01/16 03:57:04;;;;;;;5.63;0.90;;;36.30;64.80;;;;;;5113603;28;20375;-87
2023/01/16 03:59:31;;;;;;;4.00;0.88;;;36.90;63.80;;;;;;5114325;28;20367;-86
2023/01/16 04:02:21;;;;;;;2.92;0.90;;;36.20;62.60;;;;;;5114799;28;20862;-86
2023/01/16 04:04:55;;;;;;;3.00;0.90;;;34.80;64.10;;;;;;5114372;28;20371;-86
2023/01/16 04:07:27;;;;;;;3.72;0.90;;;33.10;67.80;;;;;;5114740;28;20370;-86
2023/01/16 04:10:01;;;;;;;4.15;0.90;;;32.30;69.20;;;;;;5114875;28;20367;-87
2023/01/16 04:12:35;;;;;;;2.72;0.90;;;31.80;70.90;;;;;;5114577;28;20367;-88
2023/01/16 04:15:06;;;;;;;4.57;0.80;;;32.40;71.00;;;;;;5113908;28;20454;-87
2023/01/16 04:17:37;;;;;;;4.50;0.80;;;33.60;68.20;;;;;;5115110;28;20412;-87
2023/01/16 04:20:07;;;;;;;3.70;0.90;;;34.80;67.50;;;;;;5114699;28;20406;-86
2023/01/16 04:22:34;;;;;;;1.42;0.65;;;35.80;65.50;;;;;;5114730;28;20477;-88
2023/01/16 04:25:04;;;;;;;2.53;0.77;;;36.70;63.00;;;;;;5114638;28;20378;-88
2023/01/16 04:27:31;;;;;;;3.20;0.90;;;37.50;61.70;;;;;;5114711;28;20374;-87
2023/01/16 04:29:58;;;;;;;2.20;0.80;;;37.80;59.60;;;;;;5114458;28;20467;-88
2023/01/16 04:32:25;;;;;;;2.90;0.98;;;37.80;60.50;;;;;;5114413;28;20921;-87
2023/01/16 04:34:51;;;;;;;1.98;0.75;;;37.70;59.80;;;;;;5114164;27;20379;-87
2023/01/16 04:37:19;;;;;;;2.67;0.82;;;37.50;58.60;;;;;;5114089;28;20416;-87
2023/01/16 04:39:47;;;;;;;3.08;0.90;;;37.50;58.60;;;;;;5113948;28;20390;-88
2023/01/16 04:42:17;;;;;;;4.50;0.90;;;37.90;58.30;;;;;;5113869;28;20409;-88
2023/01/16 04:44:44;;;;;;;2.78;0.82;;;37.30;59.00;;;;;;5113854;28;20541;-87
2023/01/16 04:47:11;;;;;;;2.08;0.70;;;36.20;60.10;;;;;;5113604;28;20712;-86
2023/01/16 04:49:38;;;;;;;2.55;0.80;;;34.90;62.20;;;;;;5113745;28;20737;-87
2023/01/16 04:52:05;;;;;;;4.60;0.80;;;33.70;64.50;;;;;;5113777;28;20870;-86
2023/01/16 04:54:32;;;;;;;2.63;0.80;;;33.20;65.80;;;;;;5113627;28;20375;-88
2023/01/16 04:57:00;;;;;;;3.20;0.90;;;32.70;67.20;;;;;;5113713;28;20454;-88
2023/01/16 04:59:28;;;;;;;2.45;0.80;;;33.00;67.00;;;;;;5113634;27;20897;-87
2023/01/16 05:01:55;;;;;;;2.47;0.93;;;33.80;65.80;;;;;;5113854;28;20418;-88
2023/01/16 05:04:22;;;;;;;2.95;0.95;;;35.10;63.80;;;;;;5113514;28;20367;-86
2023/01/16 05:06:49;;;;;;;2.17;0.80;;;35.40;63.80;;;;;;5113457;28;20382;-86
2023/01/16 05:09:16;;;;;;;3.17;0.90;;;34.80;63.00;;;;;;5113453;28;20454;-86
2023/01/16 05:11:43;;;;;;;3.50;0.90;;;34.50;64.30;;;;;;5113436;28;20458;-87
2023/01/16 05:14:10;;;;;;;1.92;0.80;;;34.20;63.70;;;;;;5113414;28;20445;-86
2023/01/16 05:16:43;;;;;;;2.45;0.88;;;33.40;66.00;;;;;;5113283;28;20735;-86
2023/01/16 05:19:10;;;;;;;1.67;0.85;;;33.50;66.60;;;;;;5114538;28;20462;-87
2023/01/16 05:21:37;;;;;;;5.73;0.87;;;34.40;64.80;;;;;;5113411;28;20451;-86
2023/01/16 05:24:05;;;;;;;4.32;0.70;;;34.80;64.10;;;;;;5113299;28;20366;-85
2023/01/16 05:26:32;;;;;;;2.13;0.80;;;35.60;63.00;;;;;;5113216;28;20389;-86
2023/01/16 05:28:59;;;;;;;2.13;0.80;;;36.40;62.20;;;;;;5113179;28;20366;-86
2023/01/16 05:31:26;;;;;;;2.47;1.00;;;36.60;60.40;;;;;;5113019;28;20462;-85
2023/01/16 05:33:53;;;;;;;3.90;0.93;;;36.80;61.40;;;;;;5113115;28;20366;-86
2023/01/16 05:36:20;;;;;;;3.33;0.88;;;37.20;59.90;;;;;;5112971;28;20378;-86
2023/01/16 05:38:47;;;;;;;3.63;1.08;;;37.10;59.50;;;;;;5112984;28;20920;-86
2023/01/16 05:41:14;;;;;;;3.13;0.90;;;37.40;59.20;;;;;;5113052;28;20874;-86
2023/01/16 05:43:41;;;;;;;3.20;1.00;;;37.40;59.50;;;;;;5112787;28;20391;-87
2023/01/16 05:46:08;;;;;;;3.40;1.00;;;37.10;59.70;;;;;;5113007;28;20386;-87
2023/01/16 05:48:36;;;;;;;2.17;0.88;;;37.30;59.90;;;;;;5111557;28;20801;-86
2023/01/16 05:51:04;;;;;;;2.85;0.90;;;37.30;58.80;;;;;;5112817;28;20374;-87
2023/01/16 05:53:31;;;;;;;2.08;0.90;;;37.30;58.60;;;;;;5112793;28;20385;-83
2023/01/16 05:56:00;;;;;;;2.92;0.80;;;37.20;58.60;;;;;;5113141;28;20378;-79
2023/01/16 05:58:28;;;;;;;2.92;0.93;;;37.20;59.20;;;;;;5112800;28;20402;-84
2023/01/16 06:00:55;;;;;;;2.30;0.80;;;37.50;58.40;;;;;;5113101;28;20390;-81
2023/01/16 06:03:22;;;;;;;1.75;0.80;;;37.80;57.80;;;;;;5114327;28;20390;-88
2023/01/16 06:05:49;;;;;;;1.73;0.80;;;37.80;57.20;;;;;;5113713;28;20374;-87
2023/01/16 06:08:16;;;;;;;2.92;0.85;;;37.40;57.70;;;;;;5115386;28;20858;-88
2023/01/16 06:10:44;;;;;;;2.78;0.93;;;37.50;57.50;;;;;;5114642;28;20394;-89
2023/01/16 06:13:12;;;;;;;1.60;0.70;;;37.60;57.70;;;;;;5113977;28;20371;-89
2023/01/16 06:15:39;;;;;;;2.45;0.80;;;36.70;58.00;;;;;;5115378;28;20374;-86
2023/01/16 06:18:05;;;;;;;2.40;0.80;;;35.90;58.70;;;;;;5114986;28;20396;-86
2023/01/16 06:20:32;;;;;;;2.60;0.90;;;35.50;59.50;;;;;;5113025;28;20925;-86
2023/01/16 06:22:59;;;;;;;2.58;0.88;;;35.00;60.40;;;;;;5112985;28;20363;-88
2023/01/16 06:25:26;;;;;;;1.80;0.73;;;34.70;61.00;;;;;;5112762;28;20382;-88
2023/01/16 06:27:53;;;;;;;1.40;0.60;;;35.50;61.20;;;;;;5113537;27;20873;-85
2023/01/16 06:30:20;;;;;;;2.75;0.98;;;35.20;60.10;;;;;;5113137;28;20378;-81
2023/01/16 06:32:50;;;;;;;2.72;1.00;;;34.40;60.80;;;;;;5112922;28;20432;-82
2023/01/16 06:35:18;;;;;;;2.30;0.90;;;33.20;61.80;;;;;;5113104;28;20500;-86
2023/01/16 06:37:45;;;;;;;2.75;0.80;;;32.40;63.70;;;;;;5112887;28;20393;-85
2023/01/16 06:40:12;;;;;;;2.60;0.77;;;32.00;64.80;;;;;;5112667;28;20386;-86
2023/01/16 06:42:39;;;;;;;1.60;0.80;;;31.90;65.00;;;;;;5113031;28;20379;-85
2023/01/16 06:45:07;;;;;;;2.95;0.82;;;31.80;65.80;;;;;;5113474;28;20400;-85
2023/01/16 06:47:34;;;;;;;3.15;0.90;;;32.50;65.30;;;;;;5114697;28;20378;-87
2023/01/16 06:50:01;;;;;;;2.20;0.88;;;33.30;64.30;;;;;;5112267;28;20367;-85
2023/01/16 06:52:28;;;;;;;2.15;0.90;;;34.10;62.70;;;;;;5112396;28;20367;-87
2023/01/16 06:54:56;;;;;;;2.72;1.10;;;34.50;62.00;;;;;;5112293;28;20379;-87
2023/01/16 06:57:23;;;;;;;3.22;0.80;;;34.80;61.40;;;;;;5112227;28;20424;-84
2023/01/16 06:59:50;;;;;;;3.67;1.00;;;35.00;61.50;;;;;;5112239;28;20366;-84
2023/01/16 07:02:17;;;;;;;4.63;1.00;;;34.80;61.50;;;;;;5112183;28;20383;-87
2023/01/16 07:04:44;;;;;;;3.03;1.00;;;34.60;61.30;;;;;;5112211;28;20371;-86
2023/01/16 07:07:11;;;;;;;2.47;0.90;;;34.00;61.80;;;;;;5112194;28;20410;-86
2023/01/16 07:09:38;;;;;;;3.05;1.10;;;33.10;63.60;;;;;;5112364;28;20369;-87
2023/01/16 07:12:05;;;;;;;4.50;1.10;;;32.70;65.40;;;;;;5115835;27;20861;-82
2023/01/16 07:22:48;;;;;;;2.97;0.90;;;31.50;66.80;;;;;;5116749;28;20362;-87
2023/01/16 07:25:29;;;;;;;2.45;0.80;;;31.10;68.00;;;;;;5116663;28;20467;-88
2023/01/16 07:27:56;;;;;;;1.88;0.90;;;30.90;68.30;;;;;;5116654;28;20389;-86
2023/01/16 07:30:23;;;;;;;4.43;0.90;;;31.00;68.30;;;;;;5116354;28;20375;-87
2023/01/16 07:32:50;;;;;;;2.53;0.83;;;31.40;67.20;;;;;;5115721;28;20395;-82
2023/01/16 07:35:18;;;;;;;2.67;0.90;;;31.90;66.60;;;;;;5115413;28;20386;-86
2023/01/16 07:37:45;;;;;;;3.83;1.00;;;32.10;66.10;;;;;;5113819;28;20732;-88
2023/01/16 07:40:13;;;;;;;2.05;0.95;;;31.90;66.60;;;;;;5115350;28;20398;-81
2023/01/16 07:42:40;;;;;;;3.83;0.98;;;31.50;68.30;;;;;;5115106;28;20370;-83
2023/01/16 07:45:07;;;;;;;4.20;1.10;;;31.10;68.90;;;;;;5115319;28;20428;-81
2023/01/16 07:47:35;;;;;;;4.65;1.00;;;30.70;70.00;;;;;;5114971;28;20375;-85
2023/01/16 07:50:02;;;;;;;3.97;1.00;;;30.30;70.80;;;;;;5115107;28;20377;-85
2023/01/16 07:52:29;;;;;;;3.38;1.00;;;29.90;71.70;;;;;;5115014;28;20445;-86
2023/01/16 07:54:56;;;;;;;4.07;1.00;;;29.60;72.50;;;;;;5114803;28;20370;-85
2023/01/16 07:57:25;;;;;;;3.22;1.00;;;29.30;74.00;;;;;;5114835;28;20858;-85
2023/01/16 07:59:52;;;;;;;3.42;1.00;;;29.00;74.90;;;;;;5114816;28;20862;-85
2023/01/16 08:02:19;;;;;;;4.55;1.17;;;28.60;76.20;;;;;;5114677;28;20387;-85
2023/01/16 08:04:46;;;;;;;4.03;1.20;;;28.40;77.40;;;;;;5114736;28;20450;-86
2023/01/16 08:07:13;;;;;;;4.50;1.17;;;28.30;78.20;;;;;;5114537;28;20420;-86
2023/01/16 08:09:40;;;;;;;3.97;1.15;;;28.10;78.60;;;;;;5114523;28;20366;-87
2023/01/16 08:12:07;;;;;;;3.50;1.02;;;28.20;78.70;;;;;;5114738;28;20850;-86
2023/01/16 08:14:34;;;;;;;3.88;1.13;;;28.50;78.40;;;;;;5114634;28;20454;-86
2023/01/16 08:17:01;;;;;;;3.70;1.10;;;28.80;77.70;;;;;;5114465;28;20738;-87
2023/01/16 08:19:28;;;;;;;4.33;1.00;;;29.00;77.20;;;;;;5114415;28;20370;-84
2023/01/16 08:21:55;;;;;;;5.55;1.20;;;28.80;77.50;;;;;;5113653;28;20395;-88
2023/01/16 08:24:23;;;;;;;4.22;1.10;;;28.60;77.80;;;;;;5114402;28;20370;-87
2023/01/16 08:26:51;;;;;;;5.35;1.27;;;28.20;78.90;;;;;;5114447;28;20375;-86
2023/01/16 08:29:18;;;;;;;4.10;1.20;;;27.80;79.50;;;;;;5112830;28;20894;-89
2023/01/16 08:31:45;;;;;;;6.33;1.30;;;27.40;80.80;;;;;;5114375;28;20371;-87
2023/01/16 08:34:12;;;;;;;4.78;1.23;;;27.10;81.30;;;;;;5114340;28;20367;-87
2023/01/16 08:36:39;;;;;;;3.58;1.10;;;26.90;82.70;;;;;;5114623;28;20378;-90
2023/01/16 08:39:08;;;;;;;3.60;1.13;;;26.70;83.80;;;;;;5114649;28;20367;-90
2023/01/16 08:52:46;;;;;;;4.30;1.10;;;25.90;86.30;;;;;;5114275;28;20358;-90
2023/01/16 08:55:13;;;;;;;5.05;1.30;;;25.80;87.70;;;;;;5114722;28;20934;-86
2023/01/16 08:57:40;;;;;;;3.97;1.10;;;25.70;88.40;;;;;;5114856;28;20853;-87
2023/01/16 09:00:08;;;;;;;4.95;1.33;;;25.50;88.80;;;;;;5114134;28;20391;-88
2023/01/16 09:02:36;;;;;;;4.57;1.40;;;25.40;89.40;;;;;;5112617;28;20394;-87
2023/01/16 09:05:04;;;;;;;4.90;1.15;;;25.30;90.00;;;;;;5112580;28;20496;-89
2023/01/16 09:07:31;;;;;;;4.30;1.20;;;25.30;90.10;;;;;;5114172;28;20389;-89
2023/01/16 09:09:58;;;;;;;2.93;1.00;;;25.20;90.10;;;;;;5114042;28;20361;-89
2023/01/16 09:15:10;;;;;;;3.50;1.10;;;25.10;90.60;;;;;;5114138;28;20976;-87
2023/01/16 09:17:37;;;;;;;4.00;1.10;;;24.90;91.00;;;;;;5113945;28;20371;-86
2023/01/16 09:20:05;;;;;;;3.13;1.10;;;24.80;91.40;;;;;;5113423;28;20386;-87
2023/01/16 09:22:32;;;;;;;3.90;1.15;;;24.70;91.70;;;;;;5113451;28;20738;-86
2023/01/16 09:25:00;;;;;;;3.63;1.13;;;24.70;92.10;;;;;;5113465;28;20420;-89
2023/01/16 09:27:27;;;;;;;5.43;1.27;;;24.60;92.40;;;;;;5113489;28;20420;-89
2023/01/16 09:29:54;;;;;;;4.53;1.10;;;24.50;92.70;;;;;;5113491;28;20850;-88
2023/01/16 09:32:21;;;;;;;4.65;1.20;;;24.50;93.20;;;;;;5112351;28;20834;-90
2023/01/16 09:34:48;;;;;;;4.43;1.17;;;24.40;93.30;;;;;;5113078;27;20756;-88
2023/01/16 09:37:15;;;;;;;4.60;1.27;;;24.30;93.50;;;;;;5113403;28;20427;-90
2023/01/16 09:39:42;;;;;;;5.18;1.02;;;24.30;93.70;;;;;;5113239;28;20377;-88
2023/01/16 09:45:32;;;;;;;4.50;1.25;;;24.20;94.60;;;;;;5113423;28;20374;-87
2023/01/16 09:48:15;;;;;;;5.60;1.50;;;24.10;95.40;;;;;;5113664;28;20879;-88
2023/01/16 09:50:44;;;;;;;4.07;1.30;;;24.10;95.90;;;;;;5113064;28;20387;-87
2023/01/16 09:59:23;;;;;;;5.13;1.30;;;23.90;97.70;;;;;;5113451;28;20719;-89
2023/01/16 10:02:03;;;;;;;4.57;1.25;;;23.90;98.30;;;;;;5112771;28;20902;-88
2023/01/16 10:04:31;;;;;;;4.13;1.20;;;23.80;99.00;;;;;;5112611;28;20375;-90
2023/01/16 10:07:26;;;;;;;4.70;1.20;;;23.70;99.50;;;;;;5113047;28;20367;-93
2023/01/16 10:10:29;;;;;;;4.28;1.05;;;23.80;99.90;;;;;;5113420;28;20367;-90
2023/01/16 10:13:30;;;;;;;4.35;1.20;;;23.70;99.90;;;;;;5113102;28;20419;-86
2023/01/16 10:16:18;;;;;;;4.85;1.23;;;23.60;99.90;;;;;;5113380;28;20409;-87
2023/01/16 10:19:06;;;;;;;4.47;1.10;;;23.60;99.90;;;;;;5112552;28;20363;-89
2023/01/16 10:21:48;;;;;;;5.30;1.40;;;23.60;99.90;;;;;;5112689;28;20433;-87
2023/01/16 10:24:44;;;;;;;5.28;1.30;;;23.60;99.90;;;;;;5112796;28;20458;-88
2023/01/16 10:27:42;;;;;;;5.68;1.30;;;23.50;99.90;;;;;;5112918;28;20427;-87
2023/01/16 10:30:17;;;;;;;5.47;1.40;;;23.40;99.90;;;;;;5112964;28;20470;-88
2023/01/16 10:32:59;;;;;;;6.00;1.38;;;23.50;99.90;;;;;;5112223;28;20398;-95
2023/01/16 10:35:33;;;;;;;3.78;1.20;;;23.40;99.90;;;;;;5114002;28;20789;-93
2023/01/16 10:38:44;;;;;;;5.93;1.27;;;23.40;99.90;;;;;;5120952;28;20368;-87
2023/01/16 10:49:58;;;;;;;5.75;1.20;;;23.30;99.90;;;;;;5076860;28;20365;-90
2023/01/16 10:52:26;;;;;;;4.43;1.20;;;23.30;99.90;;;;;;5075200;28;20844;-92
2023/01/16 10:54:56;;;;;;;4.30;1.20;;;23.20;99.90;;;;;;5074545;28;20405;-88
2023/01/16 10:57:23;;;;;;;6.45;1.38;;;23.20;99.90;;;;;;5075642;28;20818;-90
2023/01/16 10:59:54;;;;;;;4.97;1.27;;;23.10;99.90;;;;;;5074738;28;20468;-88
2023/01/16 11:02:50;;;;;;;4.82;1.27;;;23.10;99.90;;;;;;5073436;28;20868;-89
2023/01/16 11:05:43;;;;;;;4.50;1.20;;;23.10;99.90;;;;;;5073528;28;20892;-88
2023/01/16 11:08:19;;;;;;;4.65;1.20;;;23.00;99.90;;;;;;5070813;28;20386;-88
2023/01/16 11:10:48;;;;;;;6.80;1.60;;;23.00;99.90;;;;;;5073672;28;20823;-90
2023/01/16 11:19:27;;;;;;;4.63;1.33;;;22.90;99.90;;;;;;5095769;28;20850;-90
2023/01/16 11:22:11;;;;;;;6.25;1.40;;;22.90;99.90;;;;;;5096466;28;20428;-91
2023/01/16 11:24:40;;;;;;;6.18;1.50;;;22.80;99.90;;;;;;5095463;28;20385;-91
2023/01/16 11:27:13;;;;;;;7.20;1.30;;;22.80;99.90;;;;;;5077936;28;20868;-90
2023/01/16 11:29:43;;;;;;;6.38;1.52;;;22.70;99.90;;;;;;5095539;28;20371;-90
2023/01/16 11:32:13;;;;;;;4.35;1.33;;;22.70;99.90;;;;;;5077153;28;20398;-89
2023/01/16 11:34:46;;;;;;;5.45;1.50;;;22.60;99.90;;;;;;5095384;28;20442;-87
2023/01/16 11:37:16;;;;;;;6.75;1.58;;;22.60;99.90;;;;;;5095188;28;20379;-89
2023/01/16 11:39:49;;;;;;;6.13;1.30;;;22.50;99.90;;;;;;5095163;28;20383;-87
2023/01/16 11:48:26;;;;;;;5.22;1.33;;;22.50;99.90;;;;;;5115543;28;20378;-89
2023/01/16 11:50:57;;;;;;;5.75;1.45;;;22.50;99.90;;;;;;5115036;28;20761;-88
2023/01/16 11:53:31;;;;;;;5.50;1.40;;;22.40;99.90;;;;;;5115668;28;20374;-88
2023/01/16 11:56:16;;;;;;;6.10;1.70;;;22.30;99.90;;;;;;5113639;28;20386;-87
2023/01/16 11:59:20;;;;;;;6.43;1.48;;;22.30;99.90;;;;;;5114937;28;20378;-90
2023/01/16 12:02:16;;;;;;;4.15;1.20;;;22.30;99.90;;;;;;5114969;28;20899;-88
2023/01/16 12:08:08;;;;;;;4.40;1.30;;;22.20;99.90;;;;;;5115592;28;20362;-93
2023/01/16 12:10:56;;;;;;;5.15;1.30;;;22.10;99.90;;;;;;5114476;28;20452;-94
2023/01/16 12:16:50;;;;;;;4.17;1.30;;;22.00;99.90;;;;;;5115562;28;20461;-92
2023/01/16 12:19:33;;;;;;;5.73;1.40;;;22.00;99.90;;;;;;5115817;28;20367;-95
2023/01/16 12:22:18;;;;;;;4.20;1.40;;;22.00;99.90;;;;;;5115036;28;20775;-92
2023/01/16 12:25:14;;;;;;;3.77;1.47;;;21.90;99.90;;;;;;5113521;28;20489;-90
2023/01/16 12:27:56;;;;;;;4.45;1.33;;;21.90;99.90;;;;;;5072606;28;20377;-91
2023/01/16 12:30:58;;;;;;;7.80;1.70;;;21.80;99.90;;;;;;5071866;28;20385;-92
2023/01/16 12:33:46;;;;;;;4.50;1.50;;;21.70;99.90;;;;;;5072488;28;21009;-92
2023/01/16 12:36:31;;;;;;;5.77;1.47;;;21.60;99.90;;;;;;5071966;28;20378;-92
2023/01/16 12:39:28;;;;;;;4.88;1.55;;;21.60;99.90;;;;;;5072241;28;20414;-91
2023/01/16 12:45:40;;;;;;;4.78;1.50;;;21.50;99.90;;;;;;5072896;28;20441;-90
2023/01/16 12:48:40;;;;;;;6.30;1.67;;;21.50;99.90;;;;;;5071817;28;20845;-91
2023/01/16 12:51:26;;;;;;;5.22;1.70;;;21.50;99.90;;;;;;5072224;28;20454;-91
2023/01/16 12:54:23;;;;;;;6.53;1.60;;;21.50;99.90;;;;;;5055060;28;20784;-93
2023/01/16 12:57:16;;;;;;;5.40;1.50;;;21.40;99.90;;;;;;5071908;28;20889;-92
2023/01/16 12:59:59;;;;;;;5.63;1.55;;;21.40;99.90;;;;;;5055171;28;20832;-94
2023/01/16 13:02:38;;;;;;;4.82;1.65;;;21.40;99.90;;;;;;5071796;28;20452;-94
2023/01/16 13:05:12;;;;;;;7.57;1.80;;;21.30;99.90;;;;;;5101791;28;20454;-93
2023/01/16 13:08:00;;;;;;;5.35;1.80;;;21.30;99.90;;;;;;5113754;28;20374;-90
2023/01/16 13:13:38;;;;;;;4.75;1.70;;;21.20;99.90;;;;;;5113977;28;20384;-91
2023/01/16 13:16:22;;;;;;;6.87;1.80;;;21.20;99.90;;;;;;5113928;28;20404;-90
2023/01/16 13:19:02;;;;;;;8.70;1.95;;;21.10;99.90;;;;;;5113850;28;20383;-93
2023/01/16 13:21:43;;;;;;;6.97;1.90;;;21.00;99.90;;;;;;5115470;28;20426;-93
2023/01/16 13:24:16;;;;;;;5.93;1.70;;;21.00;99.90;;;;;;5114516;28;20359;-90
2023/01/16 13:26:50;;;;;;;6.25;1.63;;;21.00;99.90;;;;;;5117670;28;20383;-94
2023/01/16 13:29:39;;;;;;;7.20;1.73;;;21.00;99.90;;;;;;5113966;28;20429;-94
2023/01/16 13:32:32;;;;;;;5.75;1.40;;;20.90;99.90;;;;;;5113531;28;20378;-94
2023/01/16 13:35:05;;;;;;;5.45;1.30;;;20.90;99.90;;;;;;5114102;28;20826;-93
2023/01/16 13:37:54;;;;;;;6.30;1.67;;;20.90;99.90;;;;;;5112965;28;20881;-95
2023/01/16 13:40:39;;;;;;;7.93;1.80;;;20.80;99.90;;;;;;5117742;28;20428;-94
2023/01/16 13:46:03;;;;;;;4.78;1.50;;;20.80;99.90;;;;;;5118588;28;20372;-92
2023/01/16 13:48:36;;;;;;;5.18;1.50;;;20.70;99.90;;;;;;5117014;28;20383;-91
2023/01/16 13:51:26;;;;;;;5.57;1.50;;;20.70;99.90;;;;;;5114333;28;20366;-91
2023/01/16 13:54:05;;;;;;;6.07;1.50;;;20.70;99.90;;;;;;5113320;28;20366;-90
2023/01/16 13:56:33;;;;;;;7.33;1.60;;;20.70;99.90;;;;;;5113331;28;20366;-91
2023/01/16 13:59:08;;;;;;;4.97;1.50;;;20.70;99.90;;;;;;5111827;28;20413;-90
2023/01/16 14:01:44;;;;;;;5.47;1.60;;;20.70;99.90;;;;;;5111761;28;20477;-90
2023/01/16 14:04:15;;;;;;;5.13;1.50;;;20.60;99.90;;;;;;5113156;28;20370;-94
2023/01/16 14:10:18;;;;;;;4.97;1.67;;;20.60;99.90;;;;;;5061831;28;20364;-89
2023/01/16 14:13:21;;;;;;;4.38;1.60;;;20.50;99.90;;;;;;5061142;28;20544;-90
2023/01/16 14:18:49;;;;;;;10.02;1.90;;;20.40;99.90;;;;;;5050567;28;20475;-90
2023/01/16 14:21:21;;;;;;;4.45;1.58;;;20.40;99.90;;;;;;5036758;28;20880;-90
2023/01/16 14:24:02;;;;;;;8.25;1.80;;;20.40;99.90;;;;;;5054693;28;20380;-89
2023/01/16 14:26:47;;;;;;;7.68;1.70;;;20.30;99.90;;;;;;5054770;28;20364;-89
2023/01/16 14:29:22;;;;;;;8.82;1.80;;;20.40;99.90;;;;;;5054717;28;20376;-90
2023/01/16 14:31:58;;;;;;;12.32;1.75;;;20.30;99.90;;;;;;5054574;28;20837;-90
2023/01/16 14:34:45;;;;;;;9.52;2.20;;;20.20;99.90;;;;;;5054799;28;20384;-90
2023/01/16 14:37:25;;;;;;;26.98;3.30;;;20.20;99.90;;;;;;5054082;28;20944;-89
2023/01/16 14:39:52;;;;;;;28.52;4.10;;;20.20;99.90;;;;;;5054466;28;20368;-90
2023/01/16 14:57:07;;;;;;;35.58;5.13;;;20.30;99.90;;;;;;5117502;28;20433;-93